Time;durP1;ratioP1;P1;durP2;ratioP2;P2;SDS_P1;SDS_P2;PMS_P1;PMS_P2;Temp;Humidity;BMP_temperature;BMP_pressure;BME280_temperature;BME280_humidity;BME280_pressure;Samples;Min_cycle;Max_cycle;Signal;HPM_P1;HPM_P2
2023/09/21 00:00:41;;;;;;;1.70;0.80;;;;;;;;;;5078208;28;20578;-71
2023/09/21 00:03:09;;;;;;;1.17;0.63;;;;;;;;;;5078852;28;20215;-72
2023/09/21 00:05:39;;;;;;;4.50;2.70;;;;;;;;;;5077405;28;20212;-71
2023/09/21 00:08:07;;;;;;;2.50;0.80;;;;;;;;;;5078652;28;20202;-71
2023/09/21 00:10:35;;;;;;;1.67;0.63;;;;;;;;;;5078361;28;20563;-71
2023/09/21 00:13:05;;;;;;;2.73;0.70;;;;;;;;;;5078778;28;20231;-71
2023/09/21 00:15:33;;;;;;;2.87;0.50;;;;;;;;;;5078304;28;20212;-70
2023/09/21 00:18:04;;;;;;;2.40;0.90;;;;;;;;;;5078718;28;20215;-70
2023/09/21 00:20:36;;;;;;;0.77;0.60;;;;;;;;;;5078481;28;20234;-71
2023/09/21 00:23:06;;;;;;;4.57;0.90;;;;;;;;;;5078225;28;20206;-71
2023/09/21 00:25:36;;;;;;;2.87;0.70;;;;;;;;;;5078531;28;20203;-71
2023/09/21 00:28:07;;;;;;;2.53;0.73;;;;;;;;;;5078557;28;20211;-71
2023/09/21 00:30:36;;;;;;;2.47;0.60;;;;;;;;;;5078109;28;20231;-70
2023/09/21 00:33:07;;;;;;;1.60;0.70;;;;;;;;;;5077999;28;20313;-71
2023/09/21 00:35:39;;;;;;;0.67;0.40;;;;;;;;;;5078496;28;20206;-71
2023/09/21 00:38:09;;;;;;;1.53;0.70;;;;;;;;;;5077810;28;20227;-71
2023/09/21 00:40:38;;;;;;;5.33;0.70;;;;;;;;;;5078235;28;20218;-71
2023/09/21 00:43:09;;;;;;;2.83;0.57;;;;;;;;;;5078211;28;20613;-71
2023/09/21 00:45:38;;;;;;;2.00;1.20;;;;;;;;;;5077766;28;20624;-71
2023/09/21 00:48:09;;;;;;;4.67;0.87;;;;;;;;;;5077824;28;20735;-71
2023/09/21 00:50:38;;;;;;;1.77;0.80;;;;;;;;;;5077923;28;20254;-71
2023/09/21 00:53:06;;;;;;;3.23;0.60;;;;;;;;;;5077934;28;20229;-71
2023/09/21 00:55:39;;;;;;;1.77;0.80;;;;;;;;;;5077719;28;20567;-70
2023/09/21 00:58:09;;;;;;;2.00;0.83;;;;;;;;;;5077814;28;20580;-71
2023/09/21 01:00:39;;;;;;;1.87;0.57;;;;;;;;;;5077358;28;20231;-70
2023/09/21 01:03:11;;;;;;;3.13;0.70;;;;;;;;;;5078127;28;20206;-71
2023/09/21 01:05:40;;;;;;;2.67;0.90;;;;;;;;;;5077675;28;20244;-71
2023/09/21 01:08:11;;;;;;;1.37;0.70;;;;;;;;;;5077597;28;20632;-71
2023/09/21 01:10:40;;;;;;;1.73;0.77;;;;;;;;;;5078107;28;20277;-70
2023/09/21 01:13:11;;;;;;;0.90;0.60;;;;;;;;;;5077945;28;20237;-71
2023/09/21 01:15:40;;;;;;;2.70;0.80;;;;;;;;;;5077507;28;20206;-69
2023/09/21 01:18:08;;;;;;;1.80;0.57;;;;;;;;;;5077993;28;20206;-71
2023/09/21 01:20:37;;;;;;;1.33;0.73;;;;;;;;;;5077535;28;20232;-69
2023/09/21 01:23:11;;;;;;;0.87;0.60;;;;;;;;;;5077710;28;20232;-70
2023/09/21 01:25:41;;;;;;;1.80;0.57;;;;;;;;;;5077829;28;20225;-71
2023/09/21 01:28:10;;;;;;;3.90;0.67;;;;;;;;;;5077396;28;20213;-70
2023/09/21 01:30:38;;;;;;;2.03;0.60;;;;;;;;;;5077306;28;20261;-69
2023/09/21 01:33:08;;;;;;;1.80;0.53;;;;;;;;;;5077372;28;20644;-70
2023/09/21 01:35:37;;;;;;;0.53;0.53;;;;;;;;;;5077850;28;20244;-71
2023/09/21 01:38:06;;;;;;;1.60;0.70;;;;;;;;;;5077627;28;20209;-71
2023/09/21 01:40:35;;;;;;;4.27;0.93;;;;;;;;;;5077325;28;20688;-71
2023/09/21 01:43:07;;;;;;;1.33;0.73;;;;;;;;;;5077632;28;20255;-71
2023/09/21 01:45:37;;;;;;;3.30;1.07;;;;;;;;;;5077423;28;20220;-70
2023/09/21 01:48:08;;;;;;;2.37;0.60;;;;;;;;;;5077645;28;20213;-71
2023/09/21 01:50:43;;;;;;;1.30;0.63;;;;;;;;;;5077199;28;20692;-70
2023/09/21 01:53:11;;;;;;;4.17;0.90;;;;;;;;;;5077126;28;20219;-71
2023/09/21 01:55:40;;;;;;;2.77;0.73;;;;;;;;;;5077355;28;20254;-71
2023/09/21 01:58:11;;;;;;;1.63;0.70;;;;;;;;;;5077699;28;20222;-71
2023/09/21 02:00:39;;;;;;;0.60;0.60;;;;;;;;;;5076787;28;20275;-71
2023/09/21 02:03:08;;;;;;;2.23;0.60;;;;;;;;;;5077432;28;20249;-71
2023/09/21 02:05:37;;;;;;;4.33;0.90;;;;;;;;;;5077145;28;20748;-71
2023/09/21 02:08:05;;;;;;;3.30;0.83;;;;;;;;;;5077071;28;20253;-69
2023/09/21 02:10:33;;;;;;;1.60;0.80;;;;;;;;;;5077228;28;20233;-70
2023/09/21 02:13:03;;;;;;;2.70;0.90;;;;;;;;;;5077159;28;20215;-70
2023/09/21 02:15:34;;;;;;;2.87;0.70;;;;;;;;;;5076694;28;20761;-70
2023/09/21 02:18:04;;;;;;;1.57;0.60;;;;;;;;;;5076994;28;20611;-69
2023/09/21 02:20:34;;;;;;;3.07;1.13;;;;;;;;;;5076975;28;20230;-70
2023/09/21 02:23:03;;;;;;;0.60;0.53;;;;;;;;;;5077330;28;20203;-71
2023/09/21 02:25:31;;;;;;;5.40;0.83;;;;;;;;;;5077478;28;20202;-70
2023/09/21 02:27:59;;;;;;;1.80;0.60;;;;;;;;;;5077304;28;20208;-70
2023/09/21 02:30:33;;;;;;;0.93;0.80;;;;;;;;;;5080494;28;20284;-70
2023/09/21 02:33:04;;;;;;;1.87;0.80;;;;;;;;;;5080727;28;20210;-71
2023/09/21 02:35:33;;;;;;;4.57;0.80;;;;;;;;;;5080774;28;20253;-71
2023/09/21 02:38:03;;;;;;;3.57;0.87;;;;;;;;;;5080377;28;20206;-70
2023/09/21 02:40:31;;;;;;;1.60;0.60;;;;;;;;;;5080180;28;20709;-69
2023/09/21 02:42:59;;;;;;;1.73;0.70;;;;;;;;;;5080398;28;20210;-69
2023/09/21 02:45:27;;;;;;;4.70;0.73;;;;;;;;;;5080317;28;20400;-70
2023/09/21 02:47:55;;;;;;;3.63;0.47;;;;;;;;;;5080438;28;20216;-71
2023/09/21 02:50:25;;;;;;;1.40;0.70;;;;;;;;;;5080359;28;20226;-71
2023/09/21 02:52:55;;;;;;;2.23;0.97;;;;;;;;;;5080263;28;20206;-70
2023/09/21 02:55:23;;;;;;;3.03;0.80;;;;;;;;;;5079877;28;20578;-71
2023/09/21 02:57:55;;;;;;;2.80;0.73;;;;;;;;;;5066948;28;20211;-71
2023/09/21 03:00:27;;;;;;;1.60;0.97;;;;;;;;;;5079606;28;20226;-71
2023/09/21 03:02:56;;;;;;;2.30;0.80;;;;;;;;;;5080471;28;20293;-70
2023/09/21 03:05:27;;;;;;;1.73;0.63;;;;;;;;;;5079894;28;20615;-71
2023/09/21 03:07:56;;;;;;;1.20;0.60;;;;;;;;;;5080014;28;20262;-71
2023/09/21 03:10:25;;;;;;;2.73;0.77;;;;;;;;;;5079638;28;20252;-71
2023/09/21 03:12:53;;;;;;;0.63;0.47;;;;;;;;;;5080110;28;20205;-71
2023/09/21 03:15:22;;;;;;;1.73;0.50;;;;;;;;;;5079329;28;20237;-70
2023/09/21 03:17:52;;;;;;;2.60;0.63;;;;;;;;;;5079619;28;20649;-71
2023/09/21 03:20:28;;;;;;;0.67;0.53;;;;;;;;;;5079376;28;20316;-70
2023/09/21 03:22:58;;;;;;;1.67;0.90;;;;;;;;;;5079707;28;20208;-71
2023/09/21 03:25:27;;;;;;;3.80;0.73;;;;;;;;;;5079823;28;20600;-70
2023/09/21 03:27:56;;;;;;;1.07;0.90;;;;;;;;;;5079540;28;20229;-71
2023/09/21 03:30:26;;;;;;;0.60;0.60;;;;;;;;;;5079256;28;20689;-73
2023/09/21 03:32:55;;;;;;;0.70;0.70;;;;;;;;;;5079700;28;20202;-71
2023/09/21 03:35:26;;;;;;;1.43;0.93;;;;;;;;;;5079204;28;20640;-71
2023/09/21 03:37:59;;;;;;;1.10;0.80;;;;;;;;;;5079293;28;20261;-71
2023/09/21 03:40:30;;;;;;;2.63;0.87;;;;;;;;;;5079031;28;20226;-71
2023/09/21 03:42:59;;;;;;;0.70;0.70;;;;;;;;;;5079067;28;20225;-71
2023/09/21 03:45:27;;;;;;;1.67;0.90;;;;;;;;;;5078781;28;20666;-72
2023/09/21 03:47:56;;;;;;;1.73;0.83;;;;;;;;;;5079181;28;20214;-69
2023/09/21 03:50:27;;;;;;;1.07;0.80;;;;;;;;;;5079017;28;20719;-70
2023/09/21 03:52:56;;;;;;;1.63;0.80;;;;;;;;;;5078776;28;20218;-71
2023/09/21 03:55:25;;;;;;;1.00;0.70;;;;;;;;;;5079037;28;20631;-71
2023/09/21 03:57:53;;;;;;;1.40;0.60;;;;;;;;;;5079184;28;20328;-69
2023/09/21 04:00:29;;;;;;;2.17;0.60;;;;;;;;;;5078720;28;20280;-69
2023/09/21 04:02:59;;;;;;;1.83;0.70;;;;;;;;;;5078560;28;20202;-69
2023/09/21 04:05:30;;;;;;;1.77;0.73;;;;;;;;;;5078425;28;20211;-69
2023/09/21 04:07:58;;;;;;;1.60;0.50;;;;;;;;;;5078013;28;20210;-70
2023/09/21 04:10:28;;;;;;;1.53;0.70;;;;;;;;;;5077414;28;20280;-69
2023/09/21 04:12:56;;;;;;;2.33;0.70;;;;;;;;;;5078475;28;20238;-70
2023/09/21 04:15:25;;;;;;;4.53;0.90;;;;;;;;;;5077945;28;20218;-70
2023/09/21 04:17:53;;;;;;;1.73;0.57;;;;;;;;;;5078325;28;20206;-71
2023/09/21 04:20:21;;;;;;;3.20;0.63;;;;;;;;;;5077865;28;20258;-71
2023/09/21 04:22:51;;;;;;;2.53;0.73;;;;;;;;;;5075796;28;20662;-71
2023/09/21 04:25:20;;;;;;;1.90;0.70;;;;;;;;;;5078256;28;20199;-71
2023/09/21 04:27:53;;;;;;;2.53;0.87;;;;;;;;;;5075855;28;20206;-71
2023/09/21 04:30:22;;;;;;;2.17;0.67;;;;;;;;;;5077739;28;20259;-71
2023/09/21 04:32:53;;;;;;;1.10;0.50;;;;;;;;;;5076025;28;20199;-71
2023/09/21 04:35:22;;;;;;;1.27;0.50;;;;;;;;;;5078047;28;20228;-71
2023/09/21 04:37:51;;;;;;;2.43;0.57;;;;;;;;;;5075539;28;20199;-70
2023/09/21 04:40:20;;;;;;;1.20;0.70;;;;;;;;;;5078191;28;20264;-70
2023/09/21 04:42:48;;;;;;;2.53;0.80;;;;;;;;;;5077952;28;20577;-70
2023/09/21 04:45:18;;;;;;;1.63;0.63;;;;;;;;;;5078046;28;20213;-71
2023/09/21 04:47:49;;;;;;;1.17;0.57;;;;;;;;;;5078062;28;20640;-71
2023/09/21 04:50:18;;;;;;;2.80;0.77;;;;;;;;;;5078128;28;20262;-70
2023/09/21 04:52:48;;;;;;;1.60;0.60;;;;;;;;;;5077587;28;20210;-71
2023/09/21 04:55:17;;;;;;;1.60;0.67;;;;;;;;;;5078435;28;20218;-65
2023/09/21 04:57:46;;;;;;;1.60;0.70;;;;;;;;;;5074522;28;20656;-64
2023/09/21 05:00:15;;;;;;;1.10;0.57;;;;;;;;;;5077342;28;20753;-64
2023/09/21 05:02:46;;;;;;;2.00;0.80;;;;;;;;;;5074970;28;20206;-65
2023/09/21 05:05:15;;;;;;;1.30;0.90;;;;;;;;;;5077885;28;20315;-64
2023/09/21 05:07:43;;;;;;;1.33;0.80;;;;;;;;;;5070522;28;20203;-65
2023/09/21 05:10:12;;;;;;;3.73;0.67;;;;;;;;;;5077658;28;20233;-65
2023/09/21 05:12:41;;;;;;;2.00;0.70;;;;;;;;;;5077321;28;20672;-65
2023/09/21 05:15:14;;;;;;;0.77;0.63;;;;;;;;;;5076940;28;20697;-65
2023/09/21 05:17:43;;;;;;;4.00;1.50;;;;;;;;;;5076842;28;20550;-64
2023/09/21 05:20:13;;;;;;;0.80;0.60;;;;;;;;;;5071888;28;20733;-64
2023/09/21 05:22:41;;;;;;;1.70;0.80;;;;;;;;;;5077312;28;20290;-65
2023/09/21 05:25:09;;;;;;;3.50;0.97;;;;;;;;;;5077534;28;20228;-64
2023/09/21 05:27:38;;;;;;;4.30;0.80;;;;;;;;;;5077320;28;20208;-65
2023/09/21 05:30:09;;;;;;;2.33;0.90;;;;;;;;;;5073323;28;20224;-65
2023/09/21 05:32:38;;;;;;;1.60;1.50;;;;;;;;;;5077558;28;20284;-64
2023/09/21 05:35:07;;;;;;;3.03;0.97;;;;;;;;;;5077495;28;20242;-64
2023/09/21 05:37:38;;;;;;;2.00;0.80;;;;;;;;;;5077173;28;20206;-66
2023/09/21 05:40:06;;;;;;;1.90;0.70;;;;;;;;;;5076916;28;20220;-66
2023/09/21 05:42:35;;;;;;;4.17;2.00;;;;;;;;;;5077114;28;20202;-66
2023/09/21 05:45:04;;;;;;;2.63;0.70;;;;;;;;;;5063194;28;20298;-66
2023/09/21 05:47:32;;;;;;;3.90;0.80;;;;;;;;;;5077645;28;20207;-66
2023/09/21 05:50:00;;;;;;;1.60;0.70;;;;;;;;;;5077331;28;20257;-66
2023/09/21 05:52:30;;;;;;;1.40;0.80;;;;;;;;;;5077525;28;20206;-66
2023/09/21 05:55:00;;;;;;;1.90;1.00;;;;;;;;;;5076987;28;20580;-66
2023/09/21 05:57:28;;;;;;;1.80;0.80;;;;;;;;;;5076830;28;20678;-66
2023/09/21 05:59:57;;;;;;;3.63;0.97;;;;;;;;;;5076860;28;20244;-66
2023/09/21 06:02:25;;;;;;;0.97;0.80;;;;;;;;;;5077938;28;20257;-66
2023/09/21 06:04:53;;;;;;;5.03;0.87;;;;;;;;;;5081069;28;20231;-66
2023/09/21 06:07:22;;;;;;;1.13;0.70;;;;;;;;;;5081219;28;20203;-66
2023/09/21 06:09:51;;;;;;;2.03;0.70;;;;;;;;;;5080874;28;20237;-66
2023/09/21 06:12:21;;;;;;;3.30;0.70;;;;;;;;;;5080709;28;20655;-66
2023/09/21 06:14:50;;;;;;;2.23;0.83;;;;;;;;;;5080778;28;20216;-66
2023/09/21 06:17:18;;;;;;;2.47;0.77;;;;;;;;;;5074945;28;20228;-66
2023/09/21 06:19:46;;;;;;;2.00;0.60;;;;;;;;;;5074634;28;20205;-66
2023/09/21 06:22:14;;;;;;;3.83;0.90;;;;;;;;;;5075623;28;20261;-66
2023/09/21 06:24:43;;;;;;;3.30;0.80;;;;;;;;;;5080126;28;20211;-66
2023/09/21 06:27:11;;;;;;;2.00;1.13;;;;;;;;;;5080456;28;20575;-66
2023/09/21 06:29:40;;;;;;;1.83;0.80;;;;;;;;;;5080185;28;20579;-66
2023/09/21 06:32:08;;;;;;;1.93;0.70;;;;;;;;;;5080666;28;20245;-66
2023/09/21 06:34:42;;;;;;;1.63;0.90;;;;;;;;;;5080536;28;20206;-66
2023/09/21 06:37:12;;;;;;;1.40;0.80;;;;;;;;;;5080380;28;20246;-66
2023/09/21 06:39:40;;;;;;;2.80;0.77;;;;;;;;;;5080209;28;20213;-66
2023/09/21 06:42:08;;;;;;;1.53;0.57;;;;;;;;;;5080518;28;20213;-66
2023/09/21 06:44:36;;;;;;;2.10;0.87;;;;;;;;;;5080315;28;20261;-66
2023/09/21 06:47:06;;;;;;;1.63;1.13;;;;;;;;;;5080443;28;20207;-66
2023/09/21 06:49:35;;;;;;;2.03;0.90;;;;;;;;;;5080457;28;20210;-66
2023/09/21 06:52:04;;;;;;;4.37;1.07;;;;;;;;;;5080190;28;20202;-66
2023/09/21 06:54:33;;;;;;;1.53;0.80;;;;;;;;;;5080007;28;20215;-66
2023/09/21 06:57:04;;;;;;;3.23;1.00;;;;;;;;;;5071402;28;20228;-66
2023/09/21 06:59:34;;;;;;;1.33;0.60;;;;;;;;;;5078233;28;20660;-66
2023/09/21 07:02:03;;;;;;;1.20;0.60;;;;;;;;;;5080583;28;20208;-66
2023/09/21 07:04:34;;;;;;;4.70;0.97;;;;;;;;;;5079831;28;20207;-66
2023/09/21 07:07:05;;;;;;;1.77;0.80;;;;;;;;;;5079863;28;20216;-66
2023/09/21 07:09:34;;;;;;;2.53;0.70;;;;;;;;;;5079752;28;20628;-66
2023/09/21 07:12:03;;;;;;;1.47;0.60;;;;;;;;;;5079929;28;20213;-66
2023/09/21 07:14:32;;;;;;;4.60;0.87;;;;;;;;;;5079066;28;20677;-66
2023/09/21 07:17:01;;;;;;;0.93;0.70;;;;;;;;;;5076902;28;20223;-66
2023/09/21 07:19:30;;;;;;;2.77;0.80;;;;;;;;;;5079949;28;20229;-66
2023/09/21 07:21:59;;;;;;;1.77;0.70;;;;;;;;;;5079483;28;20231;-66
2023/09/21 07:24:28;;;;;;;1.60;0.60;;;;;;;;;;5080046;28;20290;-66
2023/09/21 07:26:56;;;;;;;1.00;0.90;;;;;;;;;;5079499;28;20200;-66
2023/09/21 07:29:25;;;;;;;1.50;0.40;;;;;;;;;;5079284;28;20246;-66
2023/09/21 07:31:53;;;;;;;1.47;0.80;;;;;;;;;;5079649;28;20232;-66
2023/09/21 07:34:21;;;;;;;0.97;0.60;;;;;;;;;;5079633;28;20203;-66
2023/09/21 07:36:49;;;;;;;2.17;0.93;;;;;;;;;;5079370;28;20314;-66
2023/09/21 07:39:18;;;;;;;2.77;0.87;;;;;;;;;;5079263;28;20218;-66
2023/09/21 07:41:47;;;;;;;2.87;0.70;;;;;;;;;;5078983;28;20228;-66
2023/09/21 07:44:16;;;;;;;3.00;0.73;;;;;;;;;;5078693;28;20231;-66
2023/09/21 07:46:45;;;;;;;0.70;0.70;;;;;;;;;;5079312;28;20207;-66
2023/09/21 07:49:15;;;;;;;2.13;0.70;;;;;;;;;;5079091;28;20203;-66
2023/09/21 07:51:43;;;;;;;2.07;0.70;;;;;;;;;;5079139;28;20234;-66
2023/09/21 07:54:12;;;;;;;5.13;0.60;;;;;;;;;;5078770;28;20663;-66
2023/09/21 07:56:42;;;;;;;0.90;0.60;;;;;;;;;;5078540;28;20237;-66
2023/09/21 07:59:10;;;;;;;2.37;0.70;;;;;;;;;;5078773;28;20204;-66
2023/09/21 08:01:40;;;;;;;3.37;0.80;;;;;;;;;;5078729;28;20767;-66
2023/09/21 08:04:08;;;;;;;1.17;0.80;;;;;;;;;;5078540;28;20569;-66
2023/09/21 08:06:36;;;;;;;2.73;0.60;;;;;;;;;;5078647;28;20633;-66
2023/09/21 08:09:04;;;;;;;1.70;0.63;;;;;;;;;;5078653;28;20202;-66
2023/09/21 08:11:54;;;;;;;1.47;0.70;;;;;;;;;;5078440;28;20235;-66
2023/09/21 08:14:22;;;;;;;1.33;0.60;;;;;;;;;;5078556;28;20202;-66
2023/09/21 08:16:50;;;;;;;3.23;0.80;;;;;;;;;;5078214;28;20767;-66
2023/09/21 08:19:18;;;;;;;2.87;0.70;;;;;;;;;;5078630;28;20294;-66
2023/09/21 08:21:45;;;;;;;3.43;0.90;;;;;;;;;;5077920;28;20232;-66
2023/09/21 08:24:13;;;;;;;1.17;0.60;;;;;;;;;;5078100;28;20577;-66
2023/09/21 08:26:42;;;;;;;1.87;0.50;;;;;;;;;;5077573;28;20262;-66
2023/09/21 08:29:11;;;;;;;4.07;0.87;;;;;;;;;;5077996;28;20211;-66
2023/09/21 08:31:40;;;;;;;1.67;0.50;;;;;;;;;;5078087;28;20647;-66
2023/09/21 08:34:08;;;;;;;1.17;0.57;;;;;;;;;;5078413;28;20275;-66
2023/09/21 08:36:36;;;;;;;1.60;0.63;;;;;;;;;;5078147;28;20660;-66
2023/09/21 08:39:05;;;;;;;2.80;0.80;;;;;;;;;;5078205;28;20629;-66
2023/09/21 08:41:35;;;;;;;4.57;0.73;;;;;;;;;;5077917;28;20235;-66
2023/09/21 08:44:04;;;;;;;1.60;0.70;;;;;;;;;;5077829;28;20725;-66
2023/09/21 08:46:33;;;;;;;1.07;0.53;;;;;;;;;;5064770;28;20210;-66
2023/09/21 08:49:03;;;;;;;1.30;0.70;;;;;;;;;;5078128;28;20211;-66
2023/09/21 08:51:32;;;;;;;2.90;0.53;;;;;;;;;;5078173;28;20225;-66
2023/09/21 08:54:00;;;;;;;0.90;0.80;;;;;;;;;;5077702;28;20215;-66
2023/09/21 08:56:32;;;;;;;3.10;0.70;;;;;;;;;;5077838;28;20664;-66
2023/09/21 08:59:01;;;;;;;0.57;0.50;;;;;;;;;;5067567;28;20711;-66
2023/09/21 09:01:31;;;;;;;1.20;0.80;;;;;;;;;;5077523;28;20707;-66
2023/09/21 09:04:01;;;;;;;2.80;0.90;;;;;;;;;;5078279;28;20210;-66
2023/09/21 09:06:29;;;;;;;1.13;0.80;;;;;;;;;;5077808;28;20208;-66
2023/09/21 09:08:57;;;;;;;2.87;1.00;;;;;;;;;;5077582;28;20250;-66
2023/09/21 09:11:32;;;;;;;1.90;1.00;;;;;;;;;;5077519;28;20225;-66
2023/09/21 09:14:01;;;;;;;1.90;0.70;;;;;;;;;;5077828;28;20203;-66
2023/09/21 09:16:30;;;;;;;1.37;0.80;;;;;;;;;;5077012;28;20208;-66
2023/09/21 09:19:00;;;;;;;3.27;1.00;;;;;;;;;;5068303;28;20263;-66
2023/09/21 09:21:30;;;;;;;1.60;0.73;;;;;;;;;;5077801;28;20259;-66
2023/09/21 09:23:58;;;;;;;1.70;0.90;;;;;;;;;;5077585;28;20235;-66
2023/09/21 09:26:26;;;;;;;3.17;0.87;;;;;;;;;;5077571;28;20622;-66
2023/09/21 09:29:03;;;;;;;2.33;1.00;;;;;;;;;;5077849;28;20199;-66
2023/09/21 09:31:32;;;;;;;1.73;0.70;;;;;;;;;;5072648;28;20697;-66
2023/09/21 09:34:01;;;;;;;1.23;0.90;;;;;;;;;;5072407;28;20205;-66
2023/09/21 09:36:32;;;;;;;1.73;1.13;;;;;;;;;;5077429;28;20676;-66
2023/09/21 09:39:00;;;;;;;2.77;1.03;;;;;;;;;;5080433;28;20280;-66
2023/09/21 09:41:30;;;;;;;1.97;0.80;;;;;;;;;;5081659;28;20233;-66
2023/09/21 09:43:59;;;;;;;3.17;1.00;;;;;;;;;;5081394;28;20221;-66
2023/09/21 09:46:27;;;;;;;2.93;1.00;;;;;;;;;;5081275;28;20584;-66
2023/09/21 09:48:58;;;;;;;1.77;1.10;;;;;;;;;;5081475;28;20242;-66
2023/09/21 09:51:31;;;;;;;2.50;1.07;;;;;;;;;;5081402;28;20244;-66
2023/09/21 09:54:00;;;;;;;1.70;1.00;;;;;;;;;;5080992;28;20204;-66
2023/09/21 09:56:29;;;;;;;4.60;1.03;;;;;;;;;;5081266;28;20328;-66
2023/09/21 09:58:58;;;;;;;2.53;0.93;;;;;;;;;;5080994;28;20235;-66
2023/09/21 10:01:27;;;;;;;2.47;0.90;;;;;;;;;;5080900;28;20712;-66
2023/09/21 10:03:57;;;;;;;1.33;0.90;;;;;;;;;;5081350;28;20297;-66
2023/09/21 10:06:27;;;;;;;1.47;1.10;;;;;;;;;;5081031;28;20202;-66
2023/09/21 10:08:56;;;;;;;1.33;1.10;;;;;;;;;;5080998;28;20669;-66
2023/09/21 10:11:25;;;;;;;3.30;1.10;;;;;;;;;;5080657;28;20234;-66
2023/09/21 10:13:56;;;;;;;0.93;0.87;;;;;;;;;;5080918;28;20208;-66
2023/09/21 10:16:26;;;;;;;2.07;0.97;;;;;;;;;;5080682;28;20251;-66
2023/09/21 10:18:58;;;;;;;3.07;1.23;;;;;;;;;;5080928;28;20232;-66
2023/09/21 10:21:30;;;;;;;2.80;1.00;;;;;;;;;;5080613;28;20240;-66
2023/09/21 10:24:04;;;;;;;3.87;1.17;;;;;;;;;;5080783;28;20244;-66
2023/09/21 10:26:35;;;;;;;1.40;1.30;;;;;;;;;;5080532;28;20684;-67
2023/09/21 10:29:06;;;;;;;1.83;1.43;;;;;;;;;;5080465;28;20649;-67
2023/09/21 10:31:34;;;;;;;2.50;1.37;;;;;;;;;;5080419;28;20251;-66
2023/09/21 10:34:07;;;;;;;2.40;1.10;;;;;;;;;;5080436;28;20205;-66
2023/09/21 10:36:38;;;;;;;1.27;1.17;;;;;;;;;;5080371;28;20653;-66
2023/09/21 10:39:24;;;;;;;2.70;1.23;;;;;;;;;;5080383;28;20222;-67
2023/09/21 10:41:55;;;;;;;1.77;1.60;;;;;;;;;;5080090;28;20727;-67
2023/09/21 10:44:43;;;;;;;3.97;1.60;;;;;;;;;;5073836;28;20212;-66
2023/09/21 10:47:11;;;;;;;1.37;1.13;;;;;;;;;;5066545;28;20289;-66
2023/09/21 10:49:39;;;;;;;0.97;0.90;;;;;;;;;;5078899;28;20246;-66
2023/09/21 10:52:07;;;;;;;4.00;1.20;;;;;;;;;;5080115;28;20203;-65
2023/09/21 10:54:36;;;;;;;1.70;1.00;;;;;;;;;;5079954;28;20211;-67
2023/09/21 10:57:06;;;;;;;2.67;1.30;;;;;;;;;;5079186;28;20237;-66
2023/09/21 10:59:34;;;;;;;1.73;1.27;;;;;;;;;;5079147;28;20601;-67
2023/09/21 11:02:02;;;;;;;1.43;1.20;;;;;;;;;;5075742;28;20203;-66
2023/09/21 11:04:31;;;;;;;2.93;1.07;;;;;;;;;;5072631;28;20224;-66
2023/09/21 11:06:59;;;;;;;7.00;4.47;;;;;;;;;;5078747;28;20214;-66
2023/09/21 11:09:27;;;;;;;6.17;1.63;;;;;;;;;;5079568;28;20260;-65
2023/09/21 11:11:56;;;;;;;3.10;1.33;;;;;;;;;;5079292;28;20226;-65
2023/09/21 11:14:26;;;;;;;4.00;1.63;;;;;;;;;;5079300;28;20237;-65
2023/09/21 11:16:54;;;;;;;2.77;1.20;;;;;;;;;;5079327;28;20214;-65
2023/09/21 11:19:23;;;;;;;3.97;1.70;;;;;;;;;;5070773;28;20237;-66
2023/09/21 11:21:51;;;;;;;4.80;1.70;;;;;;;;;;5070500;28;20226;-65
2023/09/21 11:24:19;;;;;;;2.63;1.50;;;;;;;;;;5079626;28;20207;-65
2023/09/21 11:26:49;;;;;;;1.40;1.10;;;;;;;;;;5079621;28;20206;-65
2023/09/21 11:29:17;;;;;;;1.90;1.50;;;;;;;;;;5079281;28;20224;-65
2023/09/21 11:31:49;;;;;;;3.73;1.77;;;;;;;;;;5079403;28;20230;-65
2023/09/21 11:34:18;;;;;;;2.37;1.60;;;;;;;;;;5066945;28;20210;-65
2023/09/21 11:36:46;;;;;;;1.40;1.23;;;;;;;;;;5079430;28;20236;-65
2023/09/21 11:39:16;;;;;;;2.27;1.20;;;;;;;;;;5079307;28;20266;-65
2023/09/21 11:41:45;;;;;;;3.57;1.77;;;;;;;;;;5079092;28;20280;-65
2023/09/21 11:44:13;;;;;;;2.63;1.40;;;;;;;;;;5079155;28;20225;-65
2023/09/21 11:46:41;;;;;;;4.93;1.70;;;;;;;;;;5078929;28;20741;-65
2023/09/21 11:49:13;;;;;;;2.70;1.60;;;;;;;;;;5078835;28;20203;-65
2023/09/21 11:51:44;;;;;;;3.30;1.40;;;;;;;;;;5078821;28;20257;-65
2023/09/21 11:54:13;;;;;;;3.53;1.93;;;;;;;;;;5072921;28;20282;-65
2023/09/21 11:56:42;;;;;;;3.67;1.60;;;;;;;;;;5063567;28;20301;-65
2023/09/21 11:59:11;;;;;;;1.80;1.40;;;;;;;;;;5078384;28;20569;-65
2023/09/21 12:01:39;;;;;;;3.13;1.77;;;;;;;;;;5078213;28;20226;-65
2023/09/21 12:04:08;;;;;;;5.13;1.70;;;;;;;;;;5078861;28;20199;-65
2023/09/21 12:06:39;;;;;;;1.53;1.43;;;;;;;;;;5078367;28;20286;-65
2023/09/21 12:09:08;;;;;;;1.43;1.33;;;;;;;;;;5078268;28;20690;-66
2023/09/21 12:11:38;;;;;;;2.30;1.90;;;;;;;;;;5078038;28;20223;-65
2023/09/21 12:14:12;;;;;;;4.43;1.67;;;;;;;;;;5078347;28;20199;-66
2023/09/21 12:16:40;;;;;;;2.60;1.40;;;;;;;;;;5076435;28;20204;-65
2023/09/21 12:19:08;;;;;;;1.87;1.50;;;;;;;;;;5078486;28;20228;-66
2023/09/21 12:21:37;;;;;;;5.83;1.87;;;;;;;;;;5078390;28;20709;-66
2023/09/21 12:24:07;;;;;;;2.87;1.80;;;;;;;;;;5077576;28;20248;-64
2023/09/21 12:26:36;;;;;;;3.23;1.80;;;;;;;;;;5078134;28;20278;-65
2023/09/21 12:29:04;;;;;;;3.87;1.37;;;;;;;;;;5077721;28;20191;-66
2023/09/21 12:31:32;;;;;;;1.53;1.00;;;;;;;;;;5077985;28;20226;-64
2023/09/21 12:34:21;;;;;;;3.33;1.63;;;;;;;;;;5073672;28;20198;-66
2023/09/21 12:36:49;;;;;;;2.07;1.30;;;;;;;;;;5077611;28;20241;-66
2023/09/21 12:39:19;;;;;;;2.63;1.40;;;;;;;;;;5075106;28;20219;-66
2023/09/21 12:41:47;;;;;;;2.10;1.47;;;;;;;;;;5078029;28;20213;-67
2023/09/21 12:44:15;;;;;;;5.03;1.97;;;;;;;;;;5076976;28;20238;-65
2023/09/21 12:46:44;;;;;;;2.93;1.40;;;;;;;;;;5078486;28;20632;-65
2023/09/21 12:49:13;;;;;;;1.60;1.40;;;;;;;;;;5077036;28;20286;-65
2023/09/21 12:51:43;;;;;;;4.17;1.57;;;;;;;;;;5077511;28;20221;-65
2023/09/21 12:54:12;;;;;;;1.70;1.60;;;;;;;;;;5075394;28;20653;-65
2023/09/21 12:56:42;;;;;;;2.50;1.60;;;;;;;;;;5077543;28;20763;-65
2023/09/21 12:59:10;;;;;;;4.80;1.77;;;;;;;;;;5077408;28;20221;-66
2023/09/21 13:01:38;;;;;;;2.63;1.60;;;;;;;;;;5077759;28;20268;-65
2023/09/21 13:04:06;;;;;;;2.50;1.50;;;;;;;;;;5077743;28;20732;-64
2023/09/21 13:06:37;;;;;;;3.10;1.60;;;;;;;;;;5077902;28;20207;-65
2023/09/21 13:09:10;;;;;;;4.97;2.60;;;;;;;;;;5077657;28;20281;-64
2023/09/21 13:11:39;;;;;;;5.43;1.80;;;;;;;;;;5077501;28;20226;-66
2023/09/21 13:14:08;;;;;;;2.40;1.67;;;;;;;;;;5077518;28;20223;-66
2023/09/21 13:16:36;;;;;;;6.60;1.50;;;;;;;;;;5077817;28;20211;-66
2023/09/21 13:19:04;;;;;;;2.40;1.73;;;;;;;;;;5077863;28;20207;-66
2023/09/21 13:21:33;;;;;;;3.90;1.87;;;;;;;;;;5077454;28;20259;-66
2023/09/21 13:24:01;;;;;;;6.50;1.83;;;;;;;;;;5075273;28;20215;-66
2023/09/21 13:26:29;;;;;;;5.33;1.90;;;;;;;;;;5071918;28;20270;-65
2023/09/21 13:28:58;;;;;;;2.77;1.63;;;;;;;;;;5076563;28;20649;-67
2023/09/21 13:31:27;;;;;;;3.00;1.93;;;;;;;;;;5079408;28;20233;-66
2023/09/21 13:33:56;;;;;;;4.70;1.80;;;;;;;;;;5075045;28;20203;-66
2023/09/21 13:36:24;;;;;;;6.67;1.77;;;;;;;;;;5076559;28;20238;-66
2023/09/21 13:38:52;;;;;;;6.67;2.10;;;;;;;;;;5075801;28;20201;-66
2023/09/21 13:41:21;;;;;;;2.40;2.00;;;;;;;;;;5077454;28;20245;-67
2023/09/21 13:43:49;;;;;;;3.73;2.03;;;;;;;;;;5072391;28;20203;-67
2023/09/21 13:46:17;;;;;;;4.00;1.87;;;;;;;;;;5071814;28;20233;-67
2023/09/21 13:48:47;;;;;;;7.03;2.40;;;;;;;;;;5072618;28;20205;-66
2023/09/21 13:51:16;;;;;;;1.80;1.70;;;;;;;;;;5077305;28;20254;-66
2023/09/21 13:53:44;;;;;;;9.13;2.70;;;;;;;;;;5077226;28;20203;-66
2023/09/21 13:56:13;;;;;;;8.90;4.57;;;;;;;;;;5077749;28;20244;-66
2023/09/21 13:58:41;;;;;;;5.03;3.60;;;;;;;;;;5074437;28;20655;-65
2023/09/21 14:01:09;;;;;;;5.80;3.70;;;;;;;;;;5062012;28;20227;-66
2023/09/21 14:03:38;;;;;;;6.77;3.83;;;;;;;;;;5077054;28;20241;-65
2023/09/21 14:06:08;;;;;;;4.30;3.77;;;;;;;;;;5077105;28;20220;-65
2023/09/21 14:08:36;;;;;;;8.53;3.43;;;;;;;;;;5076903;28;20226;-65
2023/09/21 14:11:04;;;;;;;4.80;2.53;;;;;;;;;;5077077;28;20225;-67
2023/09/21 14:13:32;;;;;;;7.27;3.23;;;;;;;;;;5076922;28;20210;-68
2023/09/21 14:16:00;;;;;;;5.90;3.70;;;;;;;;;;5070385;28;20207;-68
2023/09/21 14:18:31;;;;;;;3.43;2.70;;;;;;;;;;5073757;28;20261;-69
2023/09/21 14:21:01;;;;;;;5.73;2.30;;;;;;;;;;5075434;28;20233;-68
2023/09/21 14:23:31;;;;;;;10.57;3.47;;;;;;;;;;5077673;28;20245;-68
2023/09/21 14:25:59;;;;;;;5.70;2.97;;;;;;;;;;5080285;28;20252;-68
2023/09/21 14:28:27;;;;;;;5.30;3.27;;;;;;;;;;5080753;28;20202;-67
2023/09/21 14:30:56;;;;;;;4.80;4.33;;;;;;;;;;5080224;28;20228;-67
2023/09/21 14:33:26;;;;;;;4.83;2.80;;;;;;;;;;5066346;28;20582;-68
2023/09/21 14:35:54;;;;;;;6.37;4.03;;;;;;;;;;5075903;28;20201;-68
2023/09/21 14:38:22;;;;;;;6.53;2.73;;;;;;;;;;5073936;28;20266;-67
2023/09/21 14:40:51;;;;;;;6.47;3.10;;;;;;;;;;5079954;28;20276;-68
2023/09/21 14:43:19;;;;;;;3.73;3.03;;;;;;;;;;5080316;28;20209;-68
2023/09/21 14:45:47;;;;;;;3.90;1.90;;;;;;;;;;5080195;28;20206;-68
2023/09/21 14:48:15;;;;;;;4.93;2.07;;;;;;;;;;5079862;28;20571;-67
2023/09/21 14:50:44;;;;;;;2.70;1.83;;;;;;;;;;5072616;28;20226;-67
2023/09/21 14:53:12;;;;;;;4.87;1.70;;;;;;;;;;5079356;28;20614;-67
2023/09/21 14:55:41;;;;;;;4.43;1.87;;;;;;;;;;5069693;28;20260;-66